createdAt,value
2018-12-01T00:00:31.431Z,95.57
2018-12-01T00:03:00.320Z,95.61
2018-12-01T00:05:29.202Z,96.46
2018-12-01T00:07:58.133Z,96.44
2018-12-01T00:10:27.002Z,96.58
2018-12-01T00:12:55.856Z,95.06
2018-12-01T00:15:27.938Z,95.62
2018-12-01T00:17:57.092Z,95.81
2018-12-01T00:20:28.236Z,94.37
2018-12-01T00:22:58.241Z,94.83
2018-12-01T00:25:28.270Z,94.64
2018-12-01T00:27:58.258Z,95.22
2018-12-01T00:30:27.168Z,95.38
2018-12-01T00:32:57.272Z,95.35
2018-12-01T00:35:28.241Z,95.57
2018-12-01T00:37:59.136Z,95.58
2018-12-01T00:40:29.121Z,95.10
2018-12-01T00:43:00.123Z,95.22
2018-12-01T00:45:29.039Z,95.65
2018-12-01T00:47:57.884Z,96.08
2018-12-01T00:50:27.762Z,96.59
2018-12-01T00:52:57.735Z,96.16
2018-12-01T00:55:26.589Z,96.43
2018-12-01T00:57:55.458Z,97.12
2018-12-01T01:00:27.190Z,96.40
2018-12-01T01:02:58.409Z,96.01
2018-12-01T01:05:28.955Z,96.06
2018-12-01T01:07:58.514Z,95.44
2018-12-01T01:10:30.216Z,95.82
2018-12-01T01:13:00.199Z,96.12
2018-12-01T01:15:29.064Z,95.78
2018-12-01T01:17:58.001Z,96.17
2018-12-01T01:20:26.894Z,94.65
2018-12-01T01:22:55.777Z,95.59
2018-12-01T01:25:38.398Z,95.10
2018-12-01T01:28:07.455Z,95.16
2018-12-01T01:30:36.359Z,94.98
2018-12-01T01:33:17.482Z,95.44
2018-12-01T01:35:46.326Z,96.18
2018-12-01T01:38:15.216Z,97.19
2018-12-01T01:40:45.150Z,96.58
2018-12-01T01:43:15.026Z,96.86
2018-12-01T01:45:43.889Z,96.18
2018-12-01T01:48:12.735Z,96.63
2018-12-01T01:50:41.717Z,96.59
2018-12-01T01:53:10.581Z,97.06
2018-12-01T01:55:39.448Z,96.64
2018-12-01T01:58:18.862Z,96.57
2018-12-01T02:00:48.766Z,97.51
2018-12-01T02:03:17.639Z,97.35
2018-12-01T02:05:46.511Z,97.01
2018-12-01T02:08:16.433Z,95.27
2018-12-01T02:10:45.327Z,97.23
2018-12-01T02:13:14.229Z,97.20
2018-12-01T02:15:48.025Z,97.28
2018-12-01T02:18:18.986Z,96.14
2018-12-01T02:20:47.846Z,96.71
2018-12-01T02:23:16.710Z,96.96
2018-12-01T02:25:45.619Z,97.10
2018-12-01T02:28:14.511Z,97.63
2018-12-01T02:30:47.375Z,97.97
2018-12-01T02:33:16.287Z,97.48
2018-12-01T02:35:45.163Z,97.87
2018-12-01T02:38:15.095Z,97.80
2018-12-01T02:40:43.964Z,98.65
2018-12-01T02:43:13.896Z,97.28
2018-12-01T02:45:55.050Z,97.12
2018-12-01T02:48:25.034Z,97.42
2018-12-01T02:50:54.928Z,96.78
2018-12-01T02:53:23.810Z,96.68
2018-12-01T02:55:52.683Z,96.20
2018-12-01T02:58:22.660Z,97.59
2018-12-01T03:00:51.500Z,97.31
2018-12-01T03:03:20.424Z,97.98
2018-12-01T03:05:53.636Z,97.14
2018-12-01T03:08:22.522Z,98.41
2018-12-01T03:10:51.367Z,97.81
2018-12-01T03:13:21.606Z,96.89
2018-12-01T03:15:50.477Z,96.29
2018-12-01T03:18:19.379Z,96.69
2018-12-01T03:20:48.250Z,95.34
2018-12-01T03:23:18.180Z,96.03
2018-12-01T03:25:47.921Z,97.56
2018-12-01T03:28:22.739Z,97.78
2018-12-01T03:30:51.736Z,97.81
2018-12-01T03:33:20.594Z,97.46
2018-12-01T03:35:49.518Z,98.19
2018-12-01T03:38:18.394Z,97.90
2018-12-01T03:40:48.435Z,96.22
2018-12-01T03:43:18.340Z,97.00
2018-12-01T03:45:47.393Z,96.01
2018-12-01T03:48:16.278Z,97.05
2018-12-01T03:50:45.176Z,97.19
2018-12-01T03:53:14.015Z,95.31
2018-12-01T03:55:47.194Z,95.97
2018-12-01T03:58:21.203Z,95.83
2018-12-01T04:00:51.092Z,95.41
2018-12-01T04:03:21.029Z,95.60
2018-12-01T04:05:49.904Z,95.26
2018-12-01T04:08:19.855Z,95.69
2018-12-01T04:10:49.742Z,95.55
2018-12-01T04:13:19.679Z,95.05
2018-12-01T04:15:48.653Z,95.41
2018-12-01T04:18:17.526Z,95.73
2018-12-01T04:20:46.384Z,96.03
2018-12-01T04:23:16.367Z,96.83
2018-12-01T04:25:45.235Z,96.99
2018-12-01T04:28:14.088Z,97.89
2018-12-01T04:30:44.046Z,97.04
2018-12-01T04:33:13.982Z,96.71
2018-12-01T04:35:43.874Z,97.12
2018-12-01T04:38:12.765Z,97.60
2018-12-01T04:40:41.604Z,96.44
2018-12-01T04:43:10.476Z,95.97
2018-12-01T04:45:39.340Z,97.20
2018-12-01T04:48:08.203Z,97.09
2018-12-01T04:50:37.075Z,98.66
2018-12-01T04:53:07.968Z,98.85
2018-12-01T04:55:37.857Z,99.52
2018-12-01T04:58:09.034Z,98.45
2018-12-01T05:00:40.152Z,98.76
2018-12-01T05:03:09.041Z,97.83
2018-12-01T05:05:37.896Z,99.18
2018-12-01T05:08:10.731Z,97.88
2018-12-01T05:10:39.605Z,96.71
2018-12-01T05:13:09.504Z,97.35
2018-12-01T05:15:38.386Z,98.04
2018-12-01T05:18:08.318Z,98.37
2018-12-01T05:20:37.176Z,98.80
2018-12-01T05:23:07.154Z,99.06
2018-12-01T05:25:36.037Z,98.52
2018-12-01T05:28:04.916Z,98.48
2018-12-01T05:30:34.861Z,97.44
2018-12-01T05:33:05.948Z,98.40
2018-12-01T05:35:38.869Z,98.62
2018-12-01T05:38:08.802Z,98.49
2018-12-01T05:40:38.694Z,98.97
2018-12-01T05:43:09.659Z,98.94
2018-12-01T05:45:40.596Z,96.29
2018-12-01T05:48:11.520Z,96.86
2018-12-01T05:50:42.451Z,98.19
2018-12-01T05:53:12.387Z,98.08
2018-12-01T05:55:42.297Z,98.47
2018-12-01T05:58:11.248Z,98.58
2018-12-01T06:00:41.227Z,98.53
2018-12-01T06:03:15.214Z,98.04
2018-12-01T06:05:44.086Z,99.23
2018-12-01T06:08:15.042Z,100.00
2018-12-01T06:10:44.080Z,100.00
2018-12-01T06:13:14.991Z,99.36
2018-12-01T06:15:44.868Z,99.35
2018-12-01T06:18:14.783Z,99.41
2018-12-01T06:20:45.730Z,98.64
2018-12-01T06:23:16.662Z,99.64
2018-12-01T06:25:46.594Z,98.58
2018-12-01T06:28:16.521Z,98.88
2018-12-01T06:30:55.891Z,99.36
2018-12-01T06:33:25.859Z,100.00
2018-12-01T06:35:56.066Z,100.00
2018-12-01T06:38:25.999Z,100.00
2018-12-01T06:40:54.870Z,100.00
2018-12-01T06:43:24.830Z,100.00
2018-12-01T06:45:55.710Z,100.00
2018-12-01T06:48:26.675Z,100.00
2018-12-01T06:50:55.768Z,100.00
2018-12-01T06:53:26.700Z,100.00
2018-12-01T06:55:55.588Z,100.00
2018-12-01T06:58:25.541Z,99.43
2018-12-01T07:00:54.516Z,99.34
2018-12-01T07:03:23.381Z,99.19
2018-12-01T07:05:53.308Z,99.07
2018-12-01T07:08:23.263Z,99.43
2018-12-01T07:10:52.152Z,98.78
2018-12-01T07:13:22.153Z,97.88
2018-12-01T07:15:52.108Z,98.38
2018-12-01T07:18:34.308Z,97.95
2018-12-01T07:21:04.309Z,97.71
2018-12-01T07:23:34.200Z,96.38
2018-12-01T07:26:03.155Z,97.34
2018-12-01T07:28:33.088Z,96.33
2018-12-01T07:31:01.976Z,95.39
2018-12-01T07:33:32.930Z,97.36
2018-12-01T07:36:02.834Z,96.43
2018-12-01T07:38:31.719Z,96.17
2018-12-01T07:41:00.755Z,95.06
2018-12-01T07:43:30.681Z,95.12
2018-12-01T07:46:01.590Z,95.48
2018-12-01T07:48:30.545Z,94.83
2018-12-01T07:51:00.512Z,95.94
2018-12-01T07:53:30.401Z,97.63
2018-12-01T07:56:00.375Z,95.65
2018-12-01T07:58:30.339Z,96.90
2018-12-01T08:01:01.303Z,96.42
2018-12-01T08:03:30.230Z,97.03
2018-12-01T08:06:00.209Z,96.73
2018-12-01T08:08:30.128Z,97.34
2018-12-01T08:11:00.011Z,96.90
2018-12-01T08:13:30.400Z,96.21
2018-12-01T08:16:00.430Z,97.71
2018-12-01T08:18:31.724Z,95.75
2018-12-01T08:21:02.849Z,94.88
2018-12-01T08:23:31.741Z,96.36
2018-12-01T08:26:01.681Z,96.00
2018-12-01T08:28:31.582Z,96.10
2018-12-01T08:31:01.485Z,97.02
2018-12-01T08:33:31.428Z,96.94
2018-12-01T08:36:01.316Z,96.89
2018-12-01T08:38:32.243Z,96.25
2018-12-01T08:41:03.226Z,96.53
2018-12-01T08:43:33.374Z,95.48
2018-12-01T08:46:04.298Z,93.12
2018-12-01T08:48:34.348Z,92.38
2018-12-01T08:51:04.290Z,93.90
2018-12-01T08:53:34.235Z,93.90
2018-12-01T08:56:04.240Z,93.86
2018-12-01T08:58:34.127Z,93.27
2018-12-01T09:01:04.093Z,93.73
2018-12-01T09:03:34.173Z,93.07
2018-12-01T09:06:05.149Z,93.38
2018-12-01T09:08:35.126Z,93.51
2018-12-01T09:11:08.293Z,93.57
2018-12-01T09:13:38.245Z,93.63
2018-12-01T09:16:08.277Z,92.97
2018-12-01T09:18:38.362Z,94.16
2018-12-01T09:21:08.296Z,93.16
2018-12-01T09:23:38.213Z,93.03
2018-12-01T09:26:07.226Z,93.57
2018-12-01T09:28:41.112Z,90.58
2018-12-01T09:31:12.135Z,92.24
2018-12-01T09:33:42.098Z,91.95
2018-12-01T09:36:11.130Z,91.27
2018-12-01T09:38:42.099Z,90.12
2018-12-01T09:41:13.049Z,90.19
2018-12-01T09:43:43.005Z,90.27
2018-12-01T09:46:12.945Z,89.33
2018-12-01T09:48:43.922Z,89.21
2018-12-01T09:51:13.799Z,89.43
2018-12-01T09:53:44.765Z,89.73
2018-12-01T09:56:14.663Z,89.75
2018-12-01T09:58:44.777Z,89.24
2018-12-01T10:01:14.716Z,89.23
2018-12-01T10:03:49.015Z,88.12
2018-12-01T10:06:18.990Z,87.98
2018-12-01T10:08:48.962Z,87.67
2018-12-01T10:11:18.138Z,85.90
2018-12-01T10:13:47.093Z,86.46
2018-12-01T10:16:18.049Z,85.50
2018-12-01T10:18:48.053Z,86.24
2018-12-01T10:21:18.024Z,85.20
2018-12-01T10:23:47.978Z,86.12
2018-12-01T10:26:21.201Z,84.94
2018-12-01T10:28:54.336Z,86.01
2018-12-01T10:31:23.318Z,85.40
2018-12-01T10:33:52.196Z,85.77
2018-12-01T10:36:22.160Z,85.15
2018-12-01T10:38:52.245Z,84.85
2018-12-01T10:41:21.330Z,84.48
2018-12-01T10:43:50.298Z,84.31
2018-12-01T10:46:21.270Z,84.07
2018-12-01T10:48:51.266Z,83.90
2018-12-01T10:51:20.215Z,84.07
2018-12-01T10:53:50.195Z,84.25
2018-12-01T10:56:19.205Z,83.44
2018-12-01T10:58:49.096Z,83.63
2018-12-01T11:01:24.248Z,83.52
2018-12-01T11:03:55.248Z,84.17
2018-12-01T11:06:29.514Z,84.37
2018-12-01T11:08:59.710Z,83.98
2018-12-01T11:11:30.684Z,84.23
2018-12-01T11:14:09.962Z,83.96
2018-12-01T11:16:39.919Z,84.05
2018-12-01T11:19:09.844Z,83.99
2018-12-01T11:21:38.879Z,84.26
2018-12-01T11:24:08.845Z,84.10
2018-12-01T11:26:38.775Z,84.30
2018-12-01T11:29:08.781Z,83.45
2018-12-01T11:31:37.833Z,82.64
2018-12-01T11:34:08.931Z,83.41
2018-12-01T11:36:37.945Z,82.40
2018-12-01T11:39:08.507Z,82.60
2018-12-01T11:41:37.451Z,82.12
2018-12-01T11:44:07.578Z,80.87
2018-12-01T11:46:37.578Z,80.28
2018-12-01T11:49:07.483Z,80.52
2018-12-01T11:51:37.409Z,80.08
2018-12-01T11:54:07.343Z,80.33
2018-12-01T11:56:37.351Z,79.98
2018-12-01T11:59:08.509Z,79.60
2018-12-01T12:01:38.670Z,79.55
2018-12-01T12:04:08.643Z,78.33
2018-12-01T12:06:38.617Z,79.26
2018-12-01T12:09:08.876Z,78.06
2018-12-01T12:11:38.820Z,78.49
2018-12-01T12:14:08.829Z,78.68
2018-12-01T12:16:37.795Z,78.04
2018-12-01T12:19:08.718Z,78.27
2018-12-01T12:21:38.643Z,77.59
2018-12-01T12:24:07.737Z,76.73
2018-12-01T12:26:37.782Z,77.27
2018-12-01T12:29:07.793Z,77.53
2018-12-01T12:31:37.856Z,77.37
2018-12-01T12:34:07.806Z,76.48
2018-12-01T12:36:36.887Z,76.54
2018-12-01T12:39:07.454Z,76.47
2018-12-01T12:41:36.380Z,77.31
2018-12-01T12:44:05.822Z,76.38
2018-12-01T12:46:36.764Z,76.74
2018-12-01T12:49:06.041Z,76.29
2018-12-01T12:51:35.934Z,76.99
2018-12-01T12:54:06.510Z,75.38
2018-12-01T12:56:37.440Z,75.98
2018-12-01T12:59:07.336Z,76.03
2018-12-01T13:01:37.300Z,75.25
2018-12-01T13:04:07.290Z,74.94
2018-12-01T13:06:37.231Z,75.31
2018-12-01T13:09:09.160Z,74.96
2018-12-01T13:11:39.069Z,74.96
2018-12-01T13:14:09.036Z,74.84
2018-12-01T13:16:39.049Z,74.86
2018-12-01T13:19:14.870Z,75.22
2018-12-01T13:21:45.834Z,75.25
2018-12-01T13:24:16.713Z,75.11
2018-12-01T13:26:45.626Z,74.08
2018-12-01T13:29:16.565Z,74.20
2018-12-01T13:31:45.418Z,74.64
2018-12-01T13:34:14.345Z,75.05
2018-12-01T13:36:43.251Z,74.48
2018-12-01T13:39:14.250Z,74.85
2018-12-01T13:41:44.184Z,74.27
2018-12-01T13:44:15.149Z,74.74
2018-12-01T13:46:49.422Z,74.84
2018-12-01T13:49:18.351Z,74.55
2018-12-01T13:51:48.241Z,75.02
2018-12-01T13:54:18.177Z,74.39
2018-12-01T13:56:48.066Z,73.77
2018-12-01T13:59:22.064Z,73.98
2018-12-01T14:01:51.996Z,74.15
2018-12-01T14:04:24.190Z,73.16
2018-12-01T14:06:54.224Z,73.30
2018-12-01T14:09:24.141Z,73.53
2018-12-01T14:11:53.035Z,73.95
2018-12-01T14:14:23.028Z,73.53
2018-12-01T14:16:53.028Z,74.14
2018-12-01T14:19:22.980Z,72.91
2018-12-01T14:21:53.964Z,75.46
2018-12-01T14:24:24.321Z,73.42
2018-12-01T14:26:55.906Z,73.46
2018-12-01T14:29:24.937Z,74.31
2018-12-01T14:31:54.139Z,73.25
2018-12-01T14:34:23.107Z,73.97
2018-12-01T14:36:55.543Z,73.38
2018-12-01T14:39:26.502Z,73.48
2018-12-01T14:41:56.613Z,73.86
2018-12-01T14:44:25.816Z,74.16
2018-12-01T14:46:55.317Z,73.81
2018-12-01T14:49:25.208Z,73.36
2018-12-01T14:51:55.179Z,73.75
2018-12-01T14:54:24.108Z,74.22
2018-12-01T14:56:54.300Z,75.28
2018-12-01T14:59:24.423Z,75.56
2018-12-01T15:01:53.460Z,76.90
2018-12-01T15:04:23.376Z,78.65
2018-12-01T15:06:53.533Z,80.55
2018-12-01T15:09:23.536Z,80.41
2018-12-01T15:11:52.547Z,82.12
2018-12-01T15:14:22.701Z,83.15
2018-12-01T15:16:52.653Z,83.76
2018-12-01T15:19:22.619Z,84.08
2018-12-01T15:21:52.622Z,84.50
2018-12-01T15:24:22.619Z,86.50
2018-12-01T15:26:52.965Z,86.98
2018-12-01T15:29:22.969Z,87.82
2018-12-01T15:31:52.031Z,88.40
2018-12-01T15:34:22.008Z,88.42
2018-12-01T15:36:52.033Z,89.25
2018-12-01T15:39:28.558Z,90.47
2018-12-01T15:41:58.555Z,90.87
2018-12-01T15:44:28.465Z,91.93
2018-12-01T15:46:57.582Z,93.40
2018-12-01T15:49:27.677Z,93.25
2018-12-01T15:51:56.858Z,93.43
2018-12-01T15:54:26.811Z,94.28
2018-12-01T15:56:56.736Z,94.56
2018-12-01T15:59:30.772Z,95.20
2018-12-01T16:02:00.707Z,95.74
2018-12-01T16:04:30.658Z,95.38
2018-12-01T16:07:00.686Z,96.83
2018-12-01T16:09:30.629Z,97.12
2018-12-01T16:12:00.893Z,97.59
2018-12-01T16:14:30.783Z,97.64
2018-12-01T16:17:00.798Z,98.83
2018-12-01T16:19:33.035Z,99.17
2018-12-01T16:22:02.928Z,98.70
2018-12-01T16:24:32.832Z,99.07
2018-12-01T16:27:02.755Z,98.70
2018-12-01T16:29:32.725Z,99.42
2018-12-01T16:32:01.636Z,99.45
2018-12-01T16:34:31.550Z,99.00
2018-12-01T16:37:11.828Z,99.14
2018-12-01T16:39:40.929Z,99.59
2018-12-01T16:42:10.822Z,99.95
2018-12-01T16:44:40.726Z,100.00
2018-12-01T16:47:10.641Z,100.00
2018-12-01T16:49:39.512Z,99.90
2018-12-01T16:52:09.522Z,99.97
2018-12-01T16:54:38.487Z,100.00
2018-12-01T16:57:07.518Z,100.00
2018-12-01T16:59:38.471Z,100.00
2018-12-01T17:02:08.423Z,100.00
2018-12-01T17:04:42.400Z,100.00
2018-12-01T17:07:13.377Z,100.00
2018-12-01T17:09:44.300Z,99.58
2018-12-01T17:12:13.251Z,99.57
2018-12-01T17:14:42.195Z,99.57
2018-12-01T17:17:12.090Z,99.22
2018-12-01T17:19:42.046Z,98.75
2018-12-01T17:22:12.109Z,98.76
2018-12-01T17:24:44.927Z,98.11
2018-12-01T17:27:14.936Z,98.45
2018-12-01T17:29:43.938Z,98.17
2018-12-01T17:32:14.881Z,97.18
2018-12-01T17:34:45.839Z,96.99
2018-12-01T17:37:15.829Z,97.69
2018-12-01T17:39:50.362Z,97.94
2018-12-01T17:42:21.287Z,98.75
2018-12-01T17:44:50.185Z,97.84
2018-12-01T17:47:20.109Z,97.78
2018-12-01T17:49:52.812Z,96.94
2018-12-01T17:52:22.756Z,97.96
2018-12-01T17:54:53.766Z,98.03
2018-12-01T17:57:24.650Z,97.01
2018-12-01T17:59:54.721Z,97.08
2018-12-01T18:02:27.981Z,97.25
2018-12-01T18:04:57.980Z,97.92
2018-12-01T18:07:27.947Z,97.64
2018-12-01T18:09:57.946Z,98.91
2018-12-01T18:12:27.835Z,99.00
2018-12-01T18:14:57.750Z,100.00
2018-12-01T18:17:27.659Z,100.00
2018-12-01T18:19:57.606Z,100.00
2018-12-01T18:22:28.498Z,100.00
2018-12-01T18:24:58.426Z,100.00
2018-12-01T18:27:28.508Z,100.00
2018-12-01T18:29:58.491Z,100.00
2018-12-01T18:32:28.374Z,100.00
2018-12-01T18:34:57.267Z,100.00
2018-12-01T18:37:26.166Z,100.00
2018-12-01T18:39:56.101Z,100.00
2018-12-01T18:42:25.976Z,100.00
2018-12-01T18:44:54.911Z,100.00
2018-12-01T18:47:24.831Z,100.00
2018-12-01T18:49:58.591Z,100.00
2018-12-01T18:52:34.004Z,100.00
2018-12-01T18:55:03.939Z,100.00
2018-12-01T18:57:35.360Z,100.00
2018-12-01T19:00:11.757Z,100.00
2018-12-01T19:02:41.786Z,100.00
2018-12-01T19:05:11.706Z,100.00
2018-12-01T19:07:41.066Z,100.00
2018-12-01T19:10:15.655Z,100.00
2018-12-01T19:12:49.693Z,100.00
2018-12-01T19:15:18.828Z,100.00
2018-12-01T19:17:48.947Z,100.00
2018-12-01T19:20:18.325Z,100.00
2018-12-01T19:22:49.094Z,100.00
2018-12-01T19:25:20.202Z,100.00
2018-12-01T19:27:51.058Z,100.00
2018-12-01T19:30:21.769Z,100.00
2018-12-01T19:33:02.944Z,100.00
2018-12-01T19:35:33.029Z,100.00
2018-12-01T19:38:03.039Z,100.00
2018-12-01T19:40:34.056Z,100.00
2018-12-01T19:43:04.005Z,100.00
2018-12-01T19:45:33.918Z,100.00
2018-12-01T19:48:04.962Z,100.00
2018-12-01T19:50:38.850Z,100.00
2018-12-01T19:53:11.840Z,100.00
2018-12-01T19:55:41.994Z,100.00
2018-12-01T19:58:14.377Z,100.00
2018-12-01T20:00:55.247Z,100.00
2018-12-01T20:03:30.577Z,100.00
2018-12-01T20:06:00.458Z,100.00
2018-12-01T20:08:30.425Z,100.00
2018-12-01T20:11:02.814Z,100.00
2018-12-01T20:13:41.164Z,100.00
2018-12-01T20:16:23.359Z,100.00
2018-12-01T20:18:53.981Z,100.00
2018-12-01T20:21:24.083Z,100.00
2018-12-01T20:23:54.062Z,100.00
2018-12-01T20:26:25.069Z,100.00
2018-12-01T20:28:55.183Z,100.00
2018-12-01T20:31:25.141Z,100.00
2018-12-01T20:33:57.662Z,100.00
2018-12-01T20:36:36.362Z,100.00
2018-12-01T20:39:14.142Z,100.00
2018-12-01T20:41:44.028Z,100.00
2018-12-01T20:44:13.316Z,100.00
2018-12-01T20:46:43.304Z,100.00
2018-12-01T20:49:13.705Z,100.00
2018-12-01T20:51:43.706Z,100.00
2018-12-01T20:54:22.074Z,100.00
2018-12-01T20:56:54.873Z,100.00
2018-12-01T20:59:24.105Z,100.00
2018-12-01T21:01:54.430Z,100.00
2018-12-01T21:04:25.821Z,100.00
2018-12-01T21:06:55.624Z,100.00
2018-12-01T21:09:24.923Z,100.00
2018-12-01T21:11:54.901Z,99.99
2018-12-01T21:14:24.247Z,100.00
2018-12-01T21:16:54.503Z,100.00
2018-12-01T21:19:24.425Z,99.50
2018-12-01T21:21:53.300Z,98.91
2018-12-01T21:24:22.147Z,98.41
2018-12-01T21:26:52.116Z,97.93
2018-12-01T21:29:22.040Z,97.30
2018-12-01T21:31:50.913Z,96.10
2018-12-01T21:34:20.850Z,96.33
2018-12-01T21:36:49.737Z,96.38
2018-12-01T21:39:18.596Z,95.27
2018-12-01T21:41:48.770Z,96.05
2018-12-01T21:44:17.614Z,94.52
2018-12-01T21:46:46.528Z,93.80
2018-12-01T21:49:15.414Z,94.92
2018-12-01T21:51:45.379Z,93.85
2018-12-01T21:54:15.339Z,94.04
2018-12-01T21:56:45.278Z,93.15
2018-12-01T21:59:15.195Z,93.26
2018-12-01T22:01:45.115Z,93.43
2018-12-01T22:04:15.792Z,93.13
2018-12-01T22:06:49.532Z,92.61
2018-12-01T22:09:19.494Z,92.34
2018-12-01T22:11:49.420Z,92.35
2018-12-01T22:14:19.338Z,92.43
2018-12-01T22:16:50.268Z,92.43
2018-12-01T22:19:21.265Z,92.19
2018-12-01T22:21:51.124Z,91.73
2018-12-01T22:24:21.063Z,90.87
2018-12-01T22:26:49.932Z,91.73
2018-12-01T22:29:19.903Z,91.61
2018-12-01T22:31:48.758Z,91.58
2018-12-01T22:34:17.620Z,90.86
2018-12-01T22:36:46.481Z,91.80
2018-12-01T22:39:15.351Z,90.17
2018-12-01T22:41:44.203Z,91.05
2018-12-01T22:44:14.112Z,90.83
2018-12-01T22:46:47.000Z,90.76
2018-12-01T22:49:17.022Z,90.51
2018-12-01T22:51:46.995Z,91.01
2018-12-01T22:54:16.884Z,90.30
2018-12-01T22:56:50.188Z,90.82
2018-12-01T22:59:20.056Z,90.58
2018-12-01T23:01:49.968Z,91.02
2018-12-01T23:04:19.895Z,90.61
2018-12-01T23:06:54.924Z,90.80
2018-12-01T23:09:24.846Z,90.28
2018-12-01T23:11:54.777Z,90.04
2018-12-01T23:14:24.688Z,90.70
2018-12-01T23:16:54.817Z,90.14
2018-12-01T23:19:24.732Z,89.89
2018-12-01T23:21:54.692Z,90.39
2018-12-01T23:24:24.744Z,90.43
2018-12-01T23:26:54.972Z,89.90
2018-12-01T23:29:24.982Z,89.99
2018-12-01T23:31:53.819Z,90.37
2018-12-01T23:34:23.717Z,89.98
2018-12-01T23:36:55.660Z,89.85
2018-12-01T23:39:25.608Z,89.75
2018-12-01T23:41:55.588Z,90.02
2018-12-01T23:44:29.688Z,90.28
2018-12-01T23:46:59.612Z,89.57
2018-12-01T23:49:30.595Z,90.07
2018-12-01T23:51:59.592Z,90.41
2018-12-01T23:54:28.577Z,89.92
2018-12-01T23:56:57.550Z,90.49
2018-12-01T23:59:26.541Z,89.78
